sensor_id;sensor_type;location;lat;lon;timestamp;P1;durP1;ratioP1;P2;durP2;ratioP2
27428;SDS011;14881;48.092;11.574;2022-09-13T00:00:48;5.63;;;5.00;;
27428;SDS011;14881;48.092;11.574;2022-09-13T00:03:16;7.18;;;5.10;;
27428;SDS011;14881;48.092;11.574;2022-09-13T00:05:45;5.20;;;4.60;;
27428;SDS011;14881;48.092;11.574;2022-09-13T00:08:13;8.48;;;4.28;;
27428;SDS011;14881;48.092;11.574;2022-09-13T00:10:41;7.30;;;4.82;;
27428;SDS011;14881;48.092;11.574;2022-09-13T00:13:14;7.72;;;4.88;;
27428;SDS011;14881;48.092;11.574;2022-09-13T00:15:49;10.05;;;5.28;;
27428;SDS011;14881;48.092;11.574;2022-09-13T00:18:17;6.88;;;4.97;;
27428;SDS011;14881;48.092;11.574;2022-09-13T00:20:45;5.72;;;4.82;;
27428;SDS011;14881;48.092;11.574;2022-09-13T00:23:13;4.95;;;4.38;;
27428;SDS011;14881;48.092;11.574;2022-09-13T00:25:40;5.03;;;4.53;;
27428;SDS011;14881;48.092;11.574;2022-09-13T00:28:08;5.75;;;4.80;;
27428;SDS011;14881;48.092;11.574;2022-09-13T00:30:37;5.97;;;4.65;;
27428;SDS011;14881;48.092;11.574;2022-09-13T00:33:05;7.25;;;4.32;;
27428;SDS011;14881;48.092;11.574;2022-09-13T00:35:33;5.15;;;4.65;;
27428;SDS011;14881;48.092;11.574;2022-09-13T00:38:03;7.18;;;4.70;;
27428;SDS011;14881;48.092;11.574;2022-09-13T00:40:35;4.70;;;4.30;;
27428;SDS011;14881;48.092;11.574;2022-09-13T00:43:04;6.18;;;4.43;;
27428;SDS011;14881;48.092;11.574;2022-09-13T00:45:39;5.40;;;4.70;;
27428;SDS011;14881;48.092;11.574;2022-09-13T00:48:07;5.15;;;4.55;;
27428;SDS011;14881;48.092;11.574;2022-09-13T00:53:13;8.82;;;4.93;;
27428;SDS011;14881;48.092;11.574;2022-09-13T00:55:45;9.88;;;4.07;;
27428;SDS011;14881;48.092;11.574;2022-09-13T00:58:19;6.27;;;4.93;;
27428;SDS011;14881;48.092;11.574;2022-09-13T01:00:51;5.95;;;4.57;;
27428;SDS011;14881;48.092;11.574;2022-09-13T01:03:20;8.30;;;4.53;;
27428;SDS011;14881;48.092;11.574;2022-09-13T01:05:54;7.55;;;4.60;;
27428;SDS011;14881;48.092;11.574;2022-09-13T01:08:25;10.77;;;4.63;;
27428;SDS011;14881;48.092;11.574;2022-09-13T01:10:54;9.13;;;4.40;;
27428;SDS011;14881;48.092;11.574;2022-09-13T01:13:25;8.75;;;5.28;;
27428;SDS011;14881;48.092;11.574;2022-09-13T01:16:01;10.25;;;5.15;;
27428;SDS011;14881;48.092;11.574;2022-09-13T01:18:29;5.28;;;4.78;;
27428;SDS011;14881;48.092;11.574;2022-09-13T01:21:03;5.25;;;4.75;;
27428;SDS011;14881;48.092;11.574;2022-09-13T01:26:53;5.55;;;4.30;;
27428;SDS011;14881;48.092;11.574;2022-09-13T01:32:45;5.50;;;4.25;;
27428;SDS011;14881;48.092;11.574;2022-09-13T01:35:29;5.13;;;4.13;;
27428;SDS011;14881;48.092;11.574;2022-09-13T01:38:11;6.28;;;4.32;;
27428;SDS011;14881;48.092;11.574;2022-09-13T01:40:50;6.97;;;4.32;;
27428;SDS011;14881;48.092;11.574;2022-09-13T01:43:32;4.93;;;4.43;;
27428;SDS011;14881;48.092;11.574;2022-09-13T01:46:10;8.00;;;4.80;;
27428;SDS011;14881;48.092;11.574;2022-09-13T01:48:50;9.90;;;4.57;;
27428;SDS011;14881;48.092;11.574;2022-09-13T01:51:23;6.45;;;4.32;;
27428;SDS011;14881;48.092;11.574;2022-09-13T01:54:04;6.07;;;4.20;;
27428;SDS011;14881;48.092;11.574;2022-09-13T01:56:40;9.93;;;4.68;;
27428;SDS011;14881;48.092;11.574;2022-09-13T01:59:20;5.18;;;4.53;;
27428;SDS011;14881;48.092;11.574;2022-09-13T02:01:57;5.00;;;4.47;;
27428;SDS011;14881;48.092;11.574;2022-09-13T02:04:32;4.28;;;3.83;;
27428;SDS011;14881;48.092;11.574;2022-09-13T02:07:06;6.05;;;4.07;;
27428;SDS011;14881;48.092;11.574;2022-09-13T02:09:40;7.07;;;4.97;;
27428;SDS011;14881;48.092;11.574;2022-09-13T02:12:13;6.53;;;4.95;;
27428;SDS011;14881;48.092;11.574;2022-09-13T02:14:47;5.68;;;4.45;;
27428;SDS011;14881;48.092;11.574;2022-09-13T02:17:21;4.85;;;4.25;;
27428;SDS011;14881;48.092;11.574;2022-09-13T02:19:51;10.23;;;4.72;;
27428;SDS011;14881;48.092;11.574;2022-09-13T02:22:24;5.30;;;4.80;;
27428;SDS011;14881;48.092;11.574;2022-09-13T02:24:58;5.18;;;4.20;;
27428;SDS011;14881;48.092;11.574;2022-09-13T02:27:31;5.32;;;4.28;;
27428;SDS011;14881;48.092;11.574;2022-09-13T02:30:01;6.38;;;4.30;;
27428;SDS011;14881;48.092;11.574;2022-09-13T02:32:34;7.28;;;4.10;;
27428;SDS011;14881;48.092;11.574;2022-09-13T02:35:06;6.88;;;4.00;;
27428;SDS011;14881;48.092;11.574;2022-09-13T02:37:39;5.20;;;4.50;;
27428;SDS011;14881;48.092;11.574;2022-09-13T02:40:14;6.05;;;4.53;;
27428;SDS011;14881;48.092;11.574;2022-09-13T02:42:49;6.57;;;4.13;;
27428;SDS011;14881;48.092;11.574;2022-09-13T02:45:23;5.50;;;3.88;;
27428;SDS011;14881;48.092;11.574;2022-09-13T02:48:02;5.90;;;4.20;;
27428;SDS011;14881;48.092;11.574;2022-09-13T02:50:38;5.47;;;3.83;;
27428;SDS011;14881;48.092;11.574;2022-09-13T02:53:24;8.50;;;3.75;;
27428;SDS011;14881;48.092;11.574;2022-09-13T02:55:58;4.85;;;4.05;;
27428;SDS011;14881;48.092;11.574;2022-09-13T02:58:31;5.93;;;4.28;;
27428;SDS011;14881;48.092;11.574;2022-09-13T03:01:04;5.20;;;3.58;;
27428;SDS011;14881;48.092;11.574;2022-09-13T03:03:33;3.92;;;3.53;;
27428;SDS011;14881;48.092;11.574;2022-09-13T03:06:01;11.52;;;4.00;;
27428;SDS011;14881;48.092;11.574;2022-09-13T03:08:29;4.03;;;3.60;;
27428;SDS011;14881;48.092;11.574;2022-09-13T03:10:59;5.47;;;3.58;;
27428;SDS011;14881;48.092;11.574;2022-09-13T03:13:50;6.35;;;3.92;;
27428;SDS011;14881;48.092;11.574;2022-09-13T03:16:35;4.10;;;3.70;;
27428;SDS011;14881;48.092;11.574;2022-09-13T03:19:16;6.63;;;3.72;;
27428;SDS011;14881;48.092;11.574;2022-09-13T03:21:58;6.93;;;3.92;;
27428;SDS011;14881;48.092;11.574;2022-09-13T03:24:40;4.75;;;3.63;;
27428;SDS011;14881;48.092;11.574;2022-09-13T03:27:17;5.43;;;4.10;;
27428;SDS011;14881;48.092;11.574;2022-09-13T03:29:55;4.72;;;3.67;;
27428;SDS011;14881;48.092;11.574;2022-09-13T03:32:31;7.95;;;3.65;;
27428;SDS011;14881;48.092;11.574;2022-09-13T03:35:05;4.57;;;4.13;;
27428;SDS011;14881;48.092;11.574;2022-09-13T03:37:43;3.97;;;3.60;;
27428;SDS011;14881;48.092;11.574;2022-09-13T03:40:20;4.43;;;3.80;;
27428;SDS011;14881;48.092;11.574;2022-09-13T03:42:53;4.07;;;3.50;;
27428;SDS011;14881;48.092;11.574;2022-09-13T03:45:27;5.50;;;3.33;;
27428;SDS011;14881;48.092;11.574;2022-09-13T03:47:59;6.10;;;3.22;;
27428;SDS011;14881;48.092;11.574;2022-09-13T03:50:31;7.85;;;3.28;;
27428;SDS011;14881;48.092;11.574;2022-09-13T03:53:01;3.75;;;3.42;;
27428;SDS011;14881;48.092;11.574;2022-09-13T03:55:34;9.20;;;3.47;;
27428;SDS011;14881;48.092;11.574;2022-09-13T03:58:07;5.53;;;4.03;;
27428;SDS011;14881;48.092;11.574;2022-09-13T04:00:37;8.02;;;3.65;;
27428;SDS011;14881;48.092;11.574;2022-09-13T04:03:13;7.88;;;3.47;;
27428;SDS011;14881;48.092;11.574;2022-09-13T04:05:43;6.03;;;3.72;;
27428;SDS011;14881;48.092;11.574;2022-09-13T04:08:11;11.18;;;3.38;;
27428;SDS011;14881;48.092;11.574;2022-09-13T04:10:39;5.72;;;3.55;;
27428;SDS011;14881;48.092;11.574;2022-09-13T04:13:07;5.63;;;3.35;;
27428;SDS011;14881;48.092;11.574;2022-09-13T04:15:34;3.58;;;3.10;;
27428;SDS011;14881;48.092;11.574;2022-09-13T04:18:02;5.68;;;3.55;;
27428;SDS011;14881;48.092;11.574;2022-09-13T04:20:30;6.80;;;3.75;;
27428;SDS011;14881;48.092;11.574;2022-09-13T04:22:59;7.78;;;4.00;;
27428;SDS011;14881;48.092;11.574;2022-09-13T04:25:27;6.70;;;4.03;;
27428;SDS011;14881;48.092;11.574;2022-09-13T04:27:55;5.85;;;3.72;;
27428;SDS011;14881;48.092;11.574;2022-09-13T04:30:25;4.50;;;4.10;;
27428;SDS011;14881;48.092;11.574;2022-09-13T04:32:53;4.07;;;3.58;;
27428;SDS011;14881;48.092;11.574;2022-09-13T04:35:24;5.18;;;3.83;;
27428;SDS011;14881;48.092;11.574;2022-09-13T04:37:53;7.50;;;3.58;;
27428;SDS011;14881;48.092;11.574;2022-09-13T04:40:23;4.88;;;3.10;;
27428;SDS011;14881;48.092;11.574;2022-09-13T04:42:51;5.80;;;3.50;;
27428;SDS011;14881;48.092;11.574;2022-09-13T04:45:19;5.63;;;3.40;;
27428;SDS011;14881;48.092;11.574;2022-09-13T04:47:49;4.07;;;3.47;;
27428;SDS011;14881;48.092;11.574;2022-09-13T04:50:17;4.60;;;4.00;;
27428;SDS011;14881;48.092;11.574;2022-09-13T04:52:48;4.20;;;3.83;;
27428;SDS011;14881;48.092;11.574;2022-09-13T04:55:16;4.35;;;3.45;;
27428;SDS011;14881;48.092;11.574;2022-09-13T04:57:48;4.10;;;3.63;;
27428;SDS011;14881;48.092;11.574;2022-09-13T05:00:20;4.63;;;3.13;;
27428;SDS011;14881;48.092;11.574;2022-09-13T05:02:48;3.50;;;2.67;;
27428;SDS011;14881;48.092;11.574;2022-09-13T05:05:20;7.05;;;2.95;;
27428;SDS011;14881;48.092;11.574;2022-09-13T05:07:48;3.92;;;3.53;;
27428;SDS011;14881;48.092;11.574;2022-09-13T05:10:17;4.40;;;3.10;;
27428;SDS011;14881;48.092;11.574;2022-09-13T05:12:45;3.63;;;2.53;;
27428;SDS011;14881;48.092;11.574;2022-09-13T05:15:16;3.15;;;2.67;;
27428;SDS011;14881;48.092;11.574;2022-09-13T05:17:43;5.70;;;2.75;;
27428;SDS011;14881;48.092;11.574;2022-09-13T05:20:11;3.88;;;2.40;;
27428;SDS011;14881;48.092;11.574;2022-09-13T05:22:39;2.78;;;2.58;;
27428;SDS011;14881;48.092;11.574;2022-09-13T05:25:07;4.65;;;2.45;;
27428;SDS011;14881;48.092;11.574;2022-09-13T05:27:35;2.88;;;2.58;;
27428;SDS011;14881;48.092;11.574;2022-09-13T05:30:05;2.38;;;2.17;;
27428;SDS011;14881;48.092;11.574;2022-09-13T05:32:34;2.80;;;2.38;;
27428;SDS011;14881;48.092;11.574;2022-09-13T05:35:02;2.70;;;2.50;;
27428;SDS011;14881;48.092;11.574;2022-09-13T05:37:33;3.75;;;2.53;;
27428;SDS011;14881;48.092;11.574;2022-09-13T05:40:01;2.50;;;2.30;;
27428;SDS011;14881;48.092;11.574;2022-09-13T05:42:38;6.53;;;2.50;;
27428;SDS011;14881;48.092;11.574;2022-09-13T05:45:06;4.13;;;2.35;;
27428;SDS011;14881;48.092;11.574;2022-09-13T05:47:36;3.90;;;2.50;;
27428;SDS011;14881;48.092;11.574;2022-09-13T05:50:05;2.40;;;2.20;;
27428;SDS011;14881;48.092;11.574;2022-09-13T05:52:37;2.38;;;2.17;;
27428;SDS011;14881;48.092;11.574;2022-09-13T05:55:05;2.25;;;2.00;;
27428;SDS011;14881;48.092;11.574;2022-09-13T05:57:33;2.47;;;2.28;;
27428;SDS011;14881;48.092;11.574;2022-09-13T06:00:01;2.22;;;2.13;;
27428;SDS011;14881;48.092;11.574;2022-09-13T06:02:30;2.58;;;2.38;;
27428;SDS011;14881;48.092;11.574;2022-09-13T06:04:59;2.33;;;1.88;;
27428;SDS011;14881;48.092;11.574;2022-09-13T06:07:27;2.00;;;1.77;;
27428;SDS011;14881;48.092;11.574;2022-09-13T06:09:55;4.07;;;2.00;;
27428;SDS011;14881;48.092;11.574;2022-09-13T06:12:23;2.10;;;1.75;;
27428;SDS011;14881;48.092;11.574;2022-09-13T06:14:51;2.67;;;2.10;;
27428;SDS011;14881;48.092;11.574;2022-09-13T06:17:21;1.95;;;1.85;;
27428;SDS011;14881;48.092;11.574;2022-09-13T06:19:49;4.22;;;2.00;;
27428;SDS011;14881;48.092;11.574;2022-09-13T06:22:18;1.88;;;1.73;;
27428;SDS011;14881;48.092;11.574;2022-09-13T06:24:45;5.20;;;1.98;;
27428;SDS011;14881;48.092;11.574;2022-09-13T06:27:13;2.75;;;2.13;;
27428;SDS011;14881;48.092;11.574;2022-09-13T06:29:41;2.47;;;1.90;;
27428;SDS011;14881;48.092;11.574;2022-09-13T06:32:09;2.85;;;2.03;;
27428;SDS011;14881;48.092;11.574;2022-09-13T06:34:36;2.00;;;1.60;;
27428;SDS011;14881;48.092;11.574;2022-09-13T06:37:04;2.13;;;1.92;;
27428;SDS011;14881;48.092;11.574;2022-09-13T06:39:33;2.78;;;2.00;;
27428;SDS011;14881;48.092;11.574;2022-09-13T06:42:01;3.00;;;1.73;;
27428;SDS011;14881;48.092;11.574;2022-09-13T06:44:29;2.95;;;1.77;;
27428;SDS011;14881;48.092;11.574;2022-09-13T06:46:57;4.78;;;2.03;;
27428;SDS011;14881;48.092;11.574;2022-09-13T06:49:25;1.90;;;1.70;;
27428;SDS011;14881;48.092;11.574;2022-09-13T06:51:54;3.47;;;1.50;;
27428;SDS011;14881;48.092;11.574;2022-09-13T06:54:22;4.88;;;2.20;;
27428;SDS011;14881;48.092;11.574;2022-09-13T06:56:51;1.88;;;1.77;;
27428;SDS011;14881;48.092;11.574;2022-09-13T06:59:18;3.20;;;1.67;;
27428;SDS011;14881;48.092;11.574;2022-09-13T07:01:46;3.35;;;1.50;;
27428;SDS011;14881;48.092;11.574;2022-09-13T07:04:15;4.07;;;1.80;;
27428;SDS011;14881;48.092;11.574;2022-09-13T07:06:45;2.30;;;1.80;;
27428;SDS011;14881;48.092;11.574;2022-09-13T07:09:15;3.55;;;1.45;;
27428;SDS011;14881;48.092;11.574;2022-09-13T07:11:44;2.28;;;1.70;;
27428;SDS011;14881;48.092;11.574;2022-09-13T07:14:15;6.65;;;1.70;;
27428;SDS011;14881;48.092;11.574;2022-09-13T07:16:44;3.00;;;1.70;;
27428;SDS011;14881;48.092;11.574;2022-09-13T07:19:16;3.40;;;1.58;;
27428;SDS011;14881;48.092;11.574;2022-09-13T07:21:45;1.95;;;1.40;;
27428;SDS011;14881;48.092;11.574;2022-09-13T07:24:14;1.90;;;1.60;;
27428;SDS011;14881;48.092;11.574;2022-09-13T07:26:43;2.88;;;1.50;;
27428;SDS011;14881;48.092;11.574;2022-09-13T07:29:15;2.80;;;1.98;;
27428;SDS011;14881;48.092;11.574;2022-09-13T07:31:46;1.50;;;1.40;;
27428;SDS011;14881;48.092;11.574;2022-09-13T07:34:15;2.58;;;1.50;;
27428;SDS011;14881;48.092;11.574;2022-09-13T07:36:44;2.88;;;1.20;;
27428;SDS011;14881;48.092;11.574;2022-09-13T07:39:13;3.42;;;1.17;;
27428;SDS011;14881;48.092;11.574;2022-09-13T07:41:48;1.50;;;1.38;;
27428;SDS011;14881;48.092;11.574;2022-09-13T07:44:21;4.10;;;1.45;;
27428;SDS011;14881;48.092;11.574;2022-09-13T07:46:49;2.20;;;1.38;;
27428;SDS011;14881;48.092;11.574;2022-09-13T07:49:17;2.67;;;1.17;;
27428;SDS011;14881;48.092;11.574;2022-09-13T07:51:48;3.10;;;1.38;;
27428;SDS011;14881;48.092;11.574;2022-09-13T07:54:18;5.47;;;1.35;;
27428;SDS011;14881;48.092;11.574;2022-09-13T07:56:46;3.50;;;1.25;;
27428;SDS011;14881;48.092;11.574;2022-09-13T07:59:17;4.22;;;1.50;;
27428;SDS011;14881;48.092;11.574;2022-09-13T08:01:47;2.22;;;1.27;;
27428;SDS011;14881;48.092;11.574;2022-09-13T08:04:16;4.85;;;1.20;;
27428;SDS011;14881;48.092;11.574;2022-09-13T08:06:46;1.30;;;1.13;;
27428;SDS011;14881;48.092;11.574;2022-09-13T08:09:15;2.35;;;1.30;;
27428;SDS011;14881;48.092;11.574;2022-09-13T08:11:44;2.17;;;1.10;;
27428;SDS011;14881;48.092;11.574;2022-09-13T08:14:14;2.20;;;1.13;;
27428;SDS011;14881;48.092;11.574;2022-09-13T08:16:43;1.38;;;1.20;;
27428;SDS011;14881;48.092;11.574;2022-09-13T08:19:14;1.30;;;1.20;;
27428;SDS011;14881;48.092;11.574;2022-09-13T08:21:43;1.20;;;1.10;;
27428;SDS011;14881;48.092;11.574;2022-09-13T08:24:13;1.35;;;1.10;;
27428;SDS011;14881;48.092;11.574;2022-09-13T08:26:44;2.83;;;1.08;;
27428;SDS011;14881;48.092;11.574;2022-09-13T08:29:13;1.10;;;1.00;;
27428;SDS011;14881;48.092;11.574;2022-09-13T08:31:44;2.88;;;1.35;;
27428;SDS011;14881;48.092;11.574;2022-09-13T08:34:13;1.15;;;1.05;;
27428;SDS011;14881;48.092;11.574;2022-09-13T08:36:42;1.65;;;1.15;;
27428;SDS011;14881;48.092;11.574;2022-09-13T08:39:10;2.15;;;1.00;;
27428;SDS011;14881;48.092;11.574;2022-09-13T08:41:52;1.08;;;0.98;;
27428;SDS011;14881;48.092;11.574;2022-09-13T08:44:31;1.33;;;1.20;;
27428;SDS011;14881;48.092;11.574;2022-09-13T08:47:08;1.55;;;1.35;;
27428;SDS011;14881;48.092;11.574;2022-09-13T08:50:00;2.53;;;1.15;;
27428;SDS011;14881;48.092;11.574;2022-09-13T08:52:39;3.28;;;1.20;;
27428;SDS011;14881;48.092;11.574;2022-09-13T08:55:20;1.35;;;1.25;;
27428;SDS011;14881;48.092;11.574;2022-09-13T08:57:52;1.10;;;1.00;;
27428;SDS011;14881;48.092;11.574;2022-09-13T09:00:29;2.53;;;1.13;;
27428;SDS011;14881;48.092;11.574;2022-09-13T09:03:04;3.30;;;1.20;;
27428;SDS011;14881;48.092;11.574;2022-09-13T09:05:41;4.68;;;1.00;;
27428;SDS011;14881;48.092;11.574;2022-09-13T09:08:14;2.65;;;1.00;;
27428;SDS011;14881;48.092;11.574;2022-09-13T09:10:52;3.88;;;1.60;;
27428;SDS011;14881;48.092;11.574;2022-09-13T09:13:25;1.67;;;1.20;;
27428;SDS011;14881;48.092;11.574;2022-09-13T09:15:57;1.52;;;1.20;;
27428;SDS011;14881;48.092;11.574;2022-09-13T09:18:28;2.42;;;1.20;;
27428;SDS011;14881;48.092;11.574;2022-09-13T09:21:00;2.28;;;1.40;;
27428;SDS011;14881;48.092;11.574;2022-09-13T09:23:30;1.60;;;1.15;;
27428;SDS011;14881;48.092;11.574;2022-09-13T09:26:14;5.00;;;1.45;;
27428;SDS011;14881;48.092;11.574;2022-09-13T09:28:44;1.40;;;0.90;;
27428;SDS011;14881;48.092;11.574;2022-09-13T09:31:15;2.92;;;1.40;;
27428;SDS011;14881;48.092;11.574;2022-09-13T09:33:55;3.45;;;0.90;;
27428;SDS011;14881;48.092;11.574;2022-09-13T09:36:34;1.77;;;1.23;;
27428;SDS011;14881;48.092;11.574;2022-09-13T09:39:06;1.23;;;1.13;;
27428;SDS011;14881;48.092;11.574;2022-09-13T09:41:38;2.00;;;1.13;;
27428;SDS011;14881;48.092;11.574;2022-09-13T09:44:11;1.88;;;1.10;;
27428;SDS011;14881;48.092;11.574;2022-09-13T09:46:45;2.83;;;1.23;;
27428;SDS011;14881;48.092;11.574;2022-09-13T09:49:16;3.30;;;0.90;;
27428;SDS011;14881;48.092;11.574;2022-09-13T09:52:08;1.75;;;1.00;;
27428;SDS011;14881;48.092;11.574;2022-09-13T09:54:39;6.13;;;1.20;;
27428;SDS011;14881;48.092;11.574;2022-09-13T09:57:07;3.42;;;1.20;;
27428;SDS011;14881;48.092;11.574;2022-09-13T09:59:35;1.67;;;1.30;;
27428;SDS011;14881;48.092;11.574;2022-09-13T10:02:10;1.98;;;1.00;;
27428;SDS011;14881;48.092;11.574;2022-09-13T10:04:52;2.25;;;1.40;;
27428;SDS011;14881;48.092;11.574;2022-09-13T10:07:25;2.35;;;1.17;;
27428;SDS011;14881;48.092;11.574;2022-09-13T10:09:58;1.70;;;1.40;;
27428;SDS011;14881;48.092;11.574;2022-09-13T10:12:30;3.25;;;1.10;;
27428;SDS011;14881;48.092;11.574;2022-09-13T10:15:05;1.77;;;1.10;;
27428;SDS011;14881;48.092;11.574;2022-09-13T10:17:41;2.78;;;1.17;;
27428;SDS011;14881;48.092;11.574;2022-09-13T10:20:20;4.47;;;1.17;;
27428;SDS011;14881;48.092;11.574;2022-09-13T10:25:57;2.28;;;1.42;;
27428;SDS011;14881;48.092;11.574;2022-09-13T10:28:40;3.50;;;1.25;;
27428;SDS011;14881;48.092;11.574;2022-09-13T10:31:12;2.00;;;1.33;;
27428;SDS011;14881;48.092;11.574;2022-09-13T10:33:43;1.50;;;1.30;;
27428;SDS011;14881;48.092;11.574;2022-09-13T10:36:23;2.35;;;1.20;;
27428;SDS011;14881;48.092;11.574;2022-09-13T10:39:17;4.20;;;1.30;;
27428;SDS011;14881;48.092;11.574;2022-09-13T10:41:48;1.75;;;1.13;;
27428;SDS011;14881;48.092;11.574;2022-09-13T10:44:23;3.38;;;0.90;;
27428;SDS011;14881;48.092;11.574;2022-09-13T10:46:55;1.70;;;1.10;;
27428;SDS011;14881;48.092;11.574;2022-09-13T10:49:33;3.50;;;1.20;;
27428;SDS011;14881;48.092;11.574;2022-09-13T10:52:11;0.82;;;0.80;;
27428;SDS011;14881;48.092;11.574;2022-09-13T10:54:52;3.38;;;1.20;;
27428;SDS011;14881;48.092;11.574;2022-09-13T10:57:32;1.15;;;1.00;;
27428;SDS011;14881;48.092;11.574;2022-09-13T11:00:03;2.72;;;0.90;;
27428;SDS011;14881;48.092;11.574;2022-09-13T11:02:37;1.15;;;0.80;;
27428;SDS011;14881;48.092;11.574;2022-09-13T11:05:19;2.67;;;1.10;;
27428;SDS011;14881;48.092;11.574;2022-09-13T11:10:56;1.77;;;0.90;;
27428;SDS011;14881;48.092;11.574;2022-09-13T11:13:34;2.08;;;0.80;;
27428;SDS011;14881;48.092;11.574;2022-09-13T11:16:15;3.90;;;0.95;;
27428;SDS011;14881;48.092;11.574;2022-09-13T11:25:15;1.02;;;0.82;;
27428;SDS011;14881;48.092;11.574;2022-09-13T11:27:56;0.80;;;0.80;;
27428;SDS011;14881;48.092;11.574;2022-09-13T11:30:30;1.98;;;1.00;;
27428;SDS011;14881;48.092;11.574;2022-09-13T11:33:09;0.70;;;0.70;;
27428;SDS011;14881;48.092;11.574;2022-09-13T11:35:51;1.08;;;0.77;;
27428;SDS011;14881;48.092;11.574;2022-09-13T11:38:34;1.25;;;0.93;;
27428;SDS011;14881;48.092;11.574;2022-09-13T11:41:16;2.72;;;0.90;;
27428;SDS011;14881;48.092;11.574;2022-09-13T11:44:09;3.83;;;1.00;;
27428;SDS011;14881;48.092;11.574;2022-09-13T11:46:58;1.05;;;0.80;;
27428;SDS011;14881;48.092;11.574;2022-09-13T11:52:32;1.10;;;0.83;;
27428;SDS011;14881;48.092;11.574;2022-09-13T11:55:12;1.35;;;0.90;;
27428;SDS011;14881;48.092;11.574;2022-09-13T11:57:46;2.95;;;0.95;;
27428;SDS011;14881;48.092;11.574;2022-09-13T12:00:22;2.20;;;0.88;;
27428;SDS011;14881;48.092;11.574;2022-09-13T12:02:59;1.50;;;1.30;;
27428;SDS011;14881;48.092;11.574;2022-09-13T12:05:33;4.97;;;1.65;;
27428;SDS011;14881;48.092;11.574;2022-09-13T12:08:09;1.90;;;1.02;;
27428;SDS011;14881;48.092;11.574;2022-09-13T12:10:44;2.60;;;1.00;;
27428;SDS011;14881;48.092;11.574;2022-09-13T12:13:17;4.43;;;0.70;;
27428;SDS011;14881;48.092;11.574;2022-09-13T12:15:50;4.45;;;1.10;;
27428;SDS011;14881;48.092;11.574;2022-09-13T12:18:21;2.75;;;0.80;;
27428;SDS011;14881;48.092;11.574;2022-09-13T12:20:53;2.58;;;0.77;;
27428;SDS011;14881;48.092;11.574;2022-09-13T12:23:28;1.35;;;0.80;;
27428;SDS011;14881;48.092;11.574;2022-09-13T12:25:59;1.13;;;1.00;;
27428;SDS011;14881;48.092;11.574;2022-09-13T12:28:31;1.02;;;0.70;;
27428;SDS011;14881;48.092;11.574;2022-09-13T12:31:09;1.00;;;0.90;;
27428;SDS011;14881;48.092;11.574;2022-09-13T12:33:41;1.13;;;1.02;;
27428;SDS011;14881;48.092;11.574;2022-09-13T12:39:12;1.60;;;0.80;;
27428;SDS011;14881;48.092;11.574;2022-09-13T12:41:55;2.42;;;1.27;;
27428;SDS011;14881;48.092;11.574;2022-09-13T12:44:39;2.63;;;1.13;;
27428;SDS011;14881;48.092;11.574;2022-09-13T12:47:24;1.40;;;0.90;;
27428;SDS011;14881;48.092;11.574;2022-09-13T12:50:16;2.53;;;1.30;;
27428;SDS011;14881;48.092;11.574;2022-09-13T12:53:23;1.38;;;1.10;;
27428;SDS011;14881;48.092;11.574;2022-09-13T12:56:16;1.25;;;0.95;;
27428;SDS011;14881;48.092;11.574;2022-09-13T12:59:01;2.08;;;0.85;;
27428;SDS011;14881;48.092;11.574;2022-09-13T13:01:43;3.00;;;1.10;;
27428;SDS011;14881;48.092;11.574;2022-09-13T13:04:15;3.65;;;1.30;;
27428;SDS011;14881;48.092;11.574;2022-09-13T13:06:47;4.18;;;0.82;;
27428;SDS011;14881;48.092;11.574;2022-09-13T13:09:22;1.00;;;0.80;;
27428;SDS011;14881;48.092;11.574;2022-09-13T13:11:55;0.95;;;0.65;;
27428;SDS011;14881;48.092;11.574;2022-09-13T13:14:27;4.45;;;1.10;;
27428;SDS011;14881;48.092;11.574;2022-09-13T13:23:12;1.13;;;0.80;;
27428;SDS011;14881;48.092;11.574;2022-09-13T13:25:56;1.70;;;0.75;;
27428;SDS011;14881;48.092;11.574;2022-09-13T13:31:35;4.28;;;1.00;;
27428;SDS011;14881;48.092;11.574;2022-09-13T13:36:59;3.35;;;1.77;;
27428;SDS011;14881;48.092;11.574;2022-09-13T13:42:36;1.20;;;1.05;;
27428;SDS011;14881;48.092;11.574;2022-09-13T13:45:19;1.35;;;0.60;;
27428;SDS011;14881;48.092;11.574;2022-09-13T13:47:54;1.10;;;0.73;;
27428;SDS011;14881;48.092;11.574;2022-09-13T13:50:33;3.50;;;1.00;;
27428;SDS011;14881;48.092;11.574;2022-09-13T13:53:19;1.08;;;0.80;;
27428;SDS011;14881;48.092;11.574;2022-09-13T13:56:03;3.83;;;1.15;;
27428;SDS011;14881;48.092;11.574;2022-09-13T13:58:36;2.78;;;0.80;;
27428;SDS011;14881;48.092;11.574;2022-09-13T14:01:17;2.20;;;0.80;;
27428;SDS011;14881;48.092;11.574;2022-09-13T14:03:55;1.48;;;0.60;;
27428;SDS011;14881;48.092;11.574;2022-09-13T14:06:35;2.15;;;0.88;;
27428;SDS011;14881;48.092;11.574;2022-09-13T14:09:19;1.25;;;0.80;;
27428;SDS011;14881;48.092;11.574;2022-09-13T14:12:03;3.88;;;1.20;;
27428;SDS011;14881;48.092;11.574;2022-09-13T14:14:46;0.95;;;0.90;;
27428;SDS011;14881;48.092;11.574;2022-09-13T14:17:30;3.58;;;0.80;;
27428;SDS011;14881;48.092;11.574;2022-09-13T14:20:18;3.03;;;0.80;;
27428;SDS011;14881;48.092;11.574;2022-09-13T14:22:48;1.25;;;0.90;;
27428;SDS011;14881;48.092;11.574;2022-09-13T14:25:21;0.80;;;0.80;;
27428;SDS011;14881;48.092;11.574;2022-09-13T14:27:53;1.20;;;0.90;;
27428;SDS011;14881;48.092;11.574;2022-09-13T14:30:28;1.27;;;0.77;;
27428;SDS011;14881;48.092;11.574;2022-09-13T14:33:00;1.15;;;1.05;;
27428;SDS011;14881;48.092;11.574;2022-09-13T14:35:31;1.90;;;1.17;;
27428;SDS011;14881;48.092;11.574;2022-09-13T14:38:10;0.73;;;0.70;;
27428;SDS011;14881;48.092;11.574;2022-09-13T14:40:45;1.75;;;1.00;;
27428;SDS011;14881;48.092;11.574;2022-09-13T14:43:18;2.00;;;0.80;;
27428;SDS011;14881;48.092;11.574;2022-09-13T14:45:51;1.23;;;0.60;;
27428;SDS011;14881;48.092;11.574;2022-09-13T14:48:26;0.93;;;0.68;;
27428;SDS011;14881;48.092;11.574;2022-09-13T14:50:59;3.13;;;0.90;;
27428;SDS011;14881;48.092;11.574;2022-09-13T14:53:31;1.90;;;0.85;;
27428;SDS011;14881;48.092;11.574;2022-09-13T14:56:01;0.93;;;0.70;;
27428;SDS011;14881;48.092;11.574;2022-09-13T14:58:36;1.30;;;0.77;;
27428;SDS011;14881;48.092;11.574;2022-09-13T15:01:11;6.18;;;1.13;;
27428;SDS011;14881;48.092;11.574;2022-09-13T15:03:41;1.85;;;0.90;;
27428;SDS011;14881;48.092;11.574;2022-09-13T15:06:18;1.42;;;0.80;;
27428;SDS011;14881;48.092;11.574;2022-09-13T15:08:49;1.13;;;0.75;;
27428;SDS011;14881;48.092;11.574;2022-09-13T15:11:32;2.85;;;0.80;;
27428;SDS011;14881;48.092;11.574;2022-09-13T15:14:12;3.10;;;1.00;;
27428;SDS011;14881;48.092;11.574;2022-09-13T15:16:58;2.60;;;1.10;;
27428;SDS011;14881;48.092;11.574;2022-09-13T15:19:36;1.50;;;1.23;;
27428;SDS011;14881;48.092;11.574;2022-09-13T15:22:13;1.70;;;0.95;;
27428;SDS011;14881;48.092;11.574;2022-09-13T15:24:45;3.45;;;1.20;;
27428;SDS011;14881;48.092;11.574;2022-09-13T15:27:21;2.47;;;1.00;;
27428;SDS011;14881;48.092;11.574;2022-09-13T15:29:55;2.42;;;0.93;;
27428;SDS011;14881;48.092;11.574;2022-09-13T15:32:31;1.45;;;1.20;;
27428;SDS011;14881;48.092;11.574;2022-09-13T15:35:01;2.23;;;1.10;;
27428;SDS011;14881;48.092;11.574;2022-09-13T15:37:33;3.17;;;1.25;;
27428;SDS011;14881;48.092;11.574;2022-09-13T15:42:55;3.45;;;1.20;;
27428;SDS011;14881;48.092;11.574;2022-09-13T15:45:26;1.10;;;1.00;;
27428;SDS011;14881;48.092;11.574;2022-09-13T15:47:54;2.95;;;0.98;;
27428;SDS011;14881;48.092;11.574;2022-09-13T15:50:23;1.00;;;0.90;;
27428;SDS011;14881;48.092;11.574;2022-09-13T15:52:54;4.03;;;1.10;;
27428;SDS011;14881;48.092;11.574;2022-09-13T15:55:21;1.90;;;1.00;;